createdAt,value
2023-02-02T00:06:19.142Z,10.43
2023-02-02T00:21:09.155Z,13.02
2023-02-02T00:35:58.922Z,7.46
2023-02-02T00:50:49.718Z,6.62
2023-02-02T01:05:39.744Z,6.58
2023-02-02T01:20:30.142Z,7.06
2023-02-02T01:35:20.143Z,6.50
2023-02-02T01:50:10.521Z,10.04
2023-02-02T02:05:01.061Z,6.09
2023-02-02T02:20:21.343Z,4.70
2023-02-02T02:35:17.957Z,8.71
2023-02-02T02:50:11.515Z,7.70
2023-02-02T03:05:01.792Z,7.50
2023-02-02T03:19:52.723Z,8.37
2023-02-02T03:34:43.833Z,8.71
2023-02-02T03:49:34.729Z,8.60
2023-02-02T04:04:24.914Z,8.73
2023-02-02T04:19:15.273Z,11.62
2023-02-02T04:34:05.844Z,9.13
2023-02-02T04:48:56.556Z,7.71
2023-02-02T05:03:47.326Z,8.13
2023-02-02T05:18:37.084Z,6.70
2023-02-02T05:33:27.846Z,6.63
2023-02-02T05:48:18.161Z,7.52
2023-02-02T06:03:09.142Z,8.46
2023-02-02T06:17:59.277Z,8.22
2023-02-02T06:32:49.661Z,10.98
2023-02-02T06:47:40.357Z,8.84
2023-02-02T07:02:30.292Z,9.61
2023-02-02T07:17:20.562Z,9.38
2023-02-02T07:32:10.569Z,12.18
2023-02-02T07:47:01.645Z,9.89
2023-02-02T08:01:52.203Z,13.13
2023-02-02T08:16:42.833Z,8.36
2023-02-02T08:31:36.274Z,9.97
2023-02-02T08:46:30.411Z,10.94
2023-02-02T09:01:26.744Z,9.87
2023-02-02T09:16:21.351Z,15.57
2023-02-02T09:31:11.799Z,13.68
2023-02-02T09:46:14.600Z,10.37
2023-02-02T10:01:14.680Z,8.32
2023-02-02T10:16:13.134Z,14.10
2023-02-02T10:31:06.493Z,10.87
2023-02-02T10:45:57.896Z,9.82
2023-02-02T11:00:51.396Z,8.81
2023-02-02T11:15:45.194Z,9.61
2023-02-02T11:30:34.832Z,8.91
2023-02-02T11:45:37.434Z,10.68
2023-02-02T12:00:32.472Z,7.89
2023-02-02T12:15:47.794Z,10.21
2023-02-02T12:30:56.500Z,8.32
2023-02-02T12:45:51.801Z,8.07
2023-02-02T13:00:54.491Z,9.73
2023-02-02T13:15:49.660Z,6.58
2023-02-02T13:30:41.066Z,9.30
2023-02-02T13:45:43.642Z,9.09
2023-02-02T14:00:57.988Z,8.18
2023-02-02T14:15:41.434Z,5.98
2023-02-02T14:30:35.160Z,6.19
2023-02-02T14:45:40.608Z,5.56
2023-02-02T15:00:34.290Z,10.14
2023-02-02T15:15:27.243Z,8.89
2023-02-02T15:30:20.152Z,5.11
2023-02-02T15:45:28.298Z,4.78
2023-02-02T16:00:30.760Z,4.70
2023-02-02T16:15:24.833Z,4.11
2023-02-02T16:30:29.348Z,4.86
2023-02-02T16:45:34.125Z,3.74
2023-02-02T17:00:27.934Z,5.69
2023-02-02T17:15:18.441Z,5.14
2023-02-02T17:30:15.092Z,4.17
2023-02-02T17:45:09.404Z,3.74
2023-02-02T18:00:01.247Z,4.33
2023-02-02T18:29:42.907Z,4.10
2023-02-02T18:44:33.895Z,3.96
2023-02-02T18:59:24.593Z,4.64
2023-02-02T19:14:17.933Z,4.88
2023-02-02T19:44:24.258Z,4.01
2023-02-02T19:59:14.282Z,3.82
2023-02-02T20:14:18.531Z,4.58
2023-02-02T20:29:13.980Z,4.16
2023-02-02T20:44:07.004Z,4.99
2023-02-02T20:58:58.111Z,4.46
2023-02-02T21:13:47.967Z,4.44
2023-02-02T21:28:38.492Z,3.17
2023-02-02T21:43:28.267Z,6.39
2023-02-02T21:58:27.692Z,6.46
2023-02-02T22:13:23.864Z,3.37
2023-02-02T22:28:23.038Z,5.71
2023-02-02T22:43:17.164Z,4.37
2023-02-02T22:58:08.076Z,3.27
2023-02-02T23:12:58.912Z,4.46
2023-02-02T23:27:49.718Z,3.43
2023-02-02T23:42:40.176Z,3.83
2023-02-02T23:57:31.039Z,4.82
